Time;durP1;ratioP1;P1;durP2;ratioP2;P2;SDS_P1;SDS_P2;PMS_P1;PMS_P2;Temp;Humidity;BMP_temperature;BMP_pressure;BME280_temperature;BME280_humidity;BME280_pressure;Samples;Min_cycle;Max_cycle;Signal;HPM_P1;HPM_P2
2023/02/15 00:00:10;;;;;;;45.35;16.52;;;-0.60;99.90;;;;;;486514;244;27513;-73
2023/02/15 00:02:09;;;;;;;29.23;16.70;;;-0.60;99.90;;;;;;486500;244;27950;-75
2023/02/15 00:04:10;;;;;;;39.45;18.83;;;-0.60;99.90;;;;;;486497;244;27933;-75
2023/02/15 00:06:11;;;;;;;31.35;16.50;;;-0.60;99.90;;;;;;486541;244;27454;-75
2023/02/15 00:08:13;;;;;;;24.85;15.70;;;-0.60;99.90;;;;;;486543;244;27519;-75
2023/02/15 00:10:14;;;;;;;26.45;15.93;;;-0.60;99.90;;;;;;486503;244;27581;-75
2023/02/15 00:12:15;;;;;;;122.80;21.08;;;-0.60;99.90;;;;;;486459;244;27501;-73
2023/02/15 00:14:17;;;;;;;27.33;16.25;;;-0.80;99.90;;;;;;486505;244;27910;-75
2023/02/15 00:16:18;;;;;;;26.25;14.60;;;-0.90;99.90;;;;;;486512;244;28029;-75
2023/02/15 00:18:19;;;;;;;23.65;14.82;;;-0.80;99.90;;;;;;486512;244;27494;-75
2023/02/15 00:20:20;;;;;;;20.62;12.43;;;-0.70;99.90;;;;;;486551;244;27466;-73
2023/02/15 00:22:22;;;;;;;24.92;15.02;;;-0.70;99.90;;;;;;486533;244;27419;-74
2023/02/15 00:24:23;;;;;;;33.83;18.87;;;-0.60;99.90;;;;;;486528;244;27581;-75
2023/02/15 00:26:24;;;;;;;32.53;17.00;;;-0.80;99.90;;;;;;486560;244;28013;-76
2023/02/15 00:28:25;;;;;;;33.63;18.25;;;-0.90;99.90;;;;;;486569;244;27870;-75
2023/02/15 00:30:27;;;;;;;42.22;19.67;;;-1.00;99.90;;;;;;486525;244;27446;-73
2023/02/15 00:32:28;;;;;;;24.77;15.38;;;-1.20;99.90;;;;;;486535;244;27407;-74
2023/02/15 00:34:29;;;;;;;33.08;18.35;;;-1.10;99.90;;;;;;486490;244;27449;-74
2023/02/15 00:36:30;;;;;;;24.20;14.05;;;-1.20;99.90;;;;;;486545;244;27434;-74
2023/02/15 00:38:32;;;;;;;26.35;15.15;;;-1.20;99.90;;;;;;486526;244;27867;-75
2023/02/15 00:40:33;;;;;;;23.95;14.95;;;-1.10;99.90;;;;;;486545;244;28040;-74
2023/02/15 00:42:34;;;;;;;22.17;13.85;;;-1.00;99.90;;;;;;486510;244;27457;-74
2023/02/15 00:44:35;;;;;;;24.08;14.60;;;-1.00;99.90;;;;;;486546;244;27490;-75
2023/02/15 00:46:37;;;;;;;22.40;14.52;;;-1.00;99.90;;;;;;486524;244;27426;-74
2023/02/15 00:48:39;;;;;;;22.83;14.50;;;-1.00;99.90;;;;;;486556;244;27409;-74
2023/02/15 00:50:41;;;;;;;20.98;13.98;;;-1.00;99.90;;;;;;486353;244;28109;-74
2023/02/15 00:52:42;;;;;;;22.15;14.10;;;-1.00;99.90;;;;;;486567;244;28054;-75
2023/02/15 00:54:43;;;;;;;24.33;14.55;;;-1.00;99.90;;;;;;486532;244;27522;-74
2023/02/15 00:56:44;;;;;;;17.67;11.95;;;-1.00;99.90;;;;;;486516;244;27434;-74
2023/02/15 00:58:46;;;;;;;23.73;14.60;;;-1.00;99.90;;;;;;486515;244;27442;-75
2023/02/15 01:00:47;;;;;;;23.23;14.18;;;-1.10;99.90;;;;;;485199;244;27798;-74
2023/02/15 01:02:48;;;;;;;28.40;16.55;;;-1.00;99.90;;;;;;486550;244;27489;-74
2023/02/15 01:04:49;;;;;;;24.80;15.50;;;-1.00;99.90;;;;;;486517;244;27968;-74
2023/02/15 01:06:51;;;;;;;25.50;15.25;;;-1.00;99.90;;;;;;486519;244;27399;-74
2023/02/15 01:08:52;;;;;;;22.87;14.10;;;-1.10;99.90;;;;;;486554;244;27418;-74
2023/02/15 01:10:53;;;;;;;21.52;13.95;;;-1.10;99.90;;;;;;486544;244;27542;-74
2023/02/15 01:12:54;;;;;;;27.02;15.60;;;-1.10;99.90;;;;;;486526;244;27465;-76
2023/02/15 01:14:56;;;;;;;23.73;14.48;;;-1.10;99.90;;;;;;486487;244;27490;-76
2023/02/15 01:24:26;;;;;;;21.50;13.88;;;-1.50;99.90;;;;;;486559;244;27407;-76
2023/02/15 01:26:32;;;;;;;26.55;16.55;;;-1.50;99.90;;;;;;486548;243;27585;-76
2023/02/15 01:28:33;;;;;;;32.50;18.67;;;-1.40;99.90;;;;;;486517;244;27498;-76
2023/02/15 01:30:34;;;;;;;28.38;16.23;;;-1.40;99.90;;;;;;486528;244;28312;-76
2023/02/15 01:32:35;;;;;;;27.35;15.88;;;-1.50;99.90;;;;;;486489;244;27920;-75
2023/02/15 01:34:37;;;;;;;26.48;16.12;;;-1.40;99.90;;;;;;486536;244;27504;-76
2023/02/15 01:36:38;;;;;;;25.25;15.07;;;-1.40;99.90;;;;;;486501;244;27497;-74
2023/02/15 01:38:42;;;;;;;23.60;14.85;;;-1.40;99.90;;;;;;486522;244;27410;-74
2023/02/15 01:40:43;;;;;;;24.98;14.98;;;-1.30;99.90;;;;;;486524;244;27485;-74
2023/02/15 01:42:45;;;;;;;24.35;15.15;;;-1.30;99.90;;;;;;486580;244;27434;-75
2023/02/15 01:44:46;;;;;;;26.17;14.68;;;-1.40;99.90;;;;;;486596;244;28694;-73
2023/02/15 01:46:47;;;;;;;23.15;14.43;;;-1.40;99.90;;;;;;486621;244;27400;-74
2023/02/15 01:48:48;;;;;;;29.23;14.60;;;-1.40;99.90;;;;;;486616;244;27430;-73
2023/02/15 01:50:50;;;;;;;24.87;15.60;;;-1.40;99.90;;;;;;486569;244;27494;-73
2023/02/15 01:52:51;;;;;;;24.40;14.87;;;-1.30;99.90;;;;;;486532;244;27441;-74
2023/02/15 01:54:52;;;;;;;27.13;15.82;;;-1.30;99.90;;;;;;486552;243;27537;-74
2023/02/15 01:56:53;;;;;;;36.80;17.90;;;-1.30;99.90;;;;;;486569;244;27867;-74
2023/02/15 01:58:55;;;;;;;28.55;16.75;;;-1.30;99.90;;;;;;486526;244;28021;-73
2023/02/15 02:00:56;;;;;;;33.10;17.58;;;-1.20;99.90;;;;;;486563;244;27435;-74
2023/02/15 02:03:15;;;;;;;34.58;18.15;;;-1.20;99.90;;;;;;486499;244;27522;-74
2023/02/15 02:05:17;;;;;;;30.77;17.27;;;-1.20;99.90;;;;;;486523;244;28047;-76
2023/02/15 02:07:18;;;;;;;30.70;17.65;;;-1.20;99.90;;;;;;486528;244;27399;-76
2023/02/15 02:09:19;;;;;;;43.78;20.42;;;-1.20;99.90;;;;;;486492;244;27477;-77
2023/02/15 02:11:20;;;;;;;37.72;18.52;;;-1.30;99.90;;;;;;486559;244;27434;-77
2023/02/15 02:13:22;;;;;;;29.15;17.17;;;-1.50;99.90;;;;;;486523;244;27545;-77
2023/02/15 02:15:23;;;;;;;29.55;17.30;;;-1.40;99.90;;;;;;486531;244;27946;-73
2023/02/15 02:17:24;;;;;;;28.60;16.12;;;-1.40;99.90;;;;;;486547;244;29053;-74
2023/02/15 02:19:25;;;;;;;25.48;16.65;;;-1.30;99.90;;;;;;486506;244;27458;-73
2023/02/15 02:21:27;;;;;;;23.83;15.77;;;-1.40;99.90;;;;;;486541;244;27443;-74
2023/02/15 02:23:28;;;;;;;28.30;16.75;;;-1.40;99.90;;;;;;486555;244;27462;-74
2023/02/15 02:25:29;;;;;;;25.45;15.10;;;-1.40;99.90;;;;;;486518;244;27571;-73
2023/02/15 02:27:31;;;;;;;27.23;16.30;;;-1.50;99.90;;;;;;486520;244;27411;-74
2023/02/15 02:29:32;;;;;;;27.33;15.40;;;-1.50;99.90;;;;;;486494;244;27946;-74
2023/02/15 02:31:33;;;;;;;26.70;15.98;;;-1.50;99.90;;;;;;486578;244;27468;-74
2023/02/15 02:33:34;;;;;;;25.75;15.45;;;-1.40;99.90;;;;;;486419;244;27390;-74
2023/02/15 02:35:36;;;;;;;26.95;16.00;;;-1.40;99.90;;;;;;486531;244;27553;-74
2023/02/15 02:37:37;;;;;;;30.23;15.85;;;-1.40;99.90;;;;;;486511;244;27552;-74
2023/02/15 02:39:38;;;;;;;25.27;15.75;;;-1.30;99.90;;;;;;486520;244;27449;-74
2023/02/15 02:41:40;;;;;;;30.12;16.08;;;-1.30;99.90;;;;;;486549;244;27918;-75
2023/02/15 02:43:41;;;;;;;44.40;20.12;;;-1.40;99.90;;;;;;486519;244;27881;-74
2023/02/15 02:45:42;;;;;;;69.25;22.52;;;-1.40;99.90;;;;;;486555;244;27438;-74
2023/02/15 02:47:43;;;;;;;31.75;17.58;;;-1.50;99.90;;;;;;486542;244;27409;-74
2023/02/15 02:49:44;;;;;;;31.37;18.08;;;-1.40;99.90;;;;;;486550;244;27473;-73
2023/02/15 02:51:46;;;;;;;31.35;16.92;;;-1.40;99.90;;;;;;486578;244;27458;-74
2023/02/15 02:53:47;;;;;;;30.48;16.50;;;-1.20;99.90;;;;;;486556;244;27869;-74
2023/02/15 02:55:48;;;;;;;33.88;17.70;;;-1.30;99.90;;;;;;486549;244;27920;-74
2023/02/15 02:57:49;;;;;;;35.92;18.62;;;-1.20;99.90;;;;;;486535;244;27383;-74
2023/02/15 02:59:51;;;;;;;29.17;17.15;;;-1.20;99.90;;;;;;486565;242;27446;-74
2023/02/15 03:01:52;;;;;;;27.67;16.40;;;-1.20;99.90;;;;;;486581;244;27480;-74
2023/02/15 03:03:53;;;;;;;28.15;16.02;;;-1.20;99.90;;;;;;486511;244;27427;-74
2023/02/15 03:05:54;;;;;;;29.25;15.15;;;-1.20;99.90;;;;;;486442;244;28114;-74
2023/02/15 03:07:56;;;;;;;28.23;16.15;;;-1.30;99.90;;;;;;486475;244;29836;-73
2023/02/15 03:09:57;;;;;;;27.00;16.10;;;-1.30;99.90;;;;;;486520;244;27419;-74
2023/02/15 03:11:58;;;;;;;26.55;15.77;;;-1.30;99.90;;;;;;486473;244;27506;-74
2023/02/15 03:13:59;;;;;;;26.27;16.90;;;-1.30;99.90;;;;;;486467;244;27859;-74
2023/02/15 03:18:20;;;;;;;23.67;14.73;;;-1.40;99.90;;;;;;486477;244;29115;-76
2023/02/15 03:20:25;;;;;;;26.40;16.25;;;-1.40;99.90;;;;;;486344;244;27418;-76
2023/02/15 03:22:23;;;;;;;25.45;15.35;;;-1.40;99.90;;;;;;486289;242;27652;-74
2023/02/15 03:24:24;;;;;;;27.00;15.93;;;-1.40;99.90;;;;;;486355;244;27536;-72
2023/02/15 03:26:25;;;;;;;23.60;14.48;;;-1.40;99.90;;;;;;486466;244;27422;-73
2023/02/15 03:28:27;;;;;;;27.48;15.70;;;-1.50;99.90;;;;;;486469;244;27906;-74
2023/02/15 03:30:28;;;;;;;25.65;15.65;;;-1.40;99.90;;;;;;486472;244;28969;-74
2023/02/15 03:32:29;;;;;;;27.70;16.10;;;-1.50;99.90;;;;;;486452;244;27442;-74
2023/02/15 03:34:30;;;;;;;23.35;14.70;;;-1.60;99.90;;;;;;486477;244;27524;-73
2023/02/15 03:36:32;;;;;;;26.92;16.58;;;-1.60;99.90;;;;;;486522;244;27402;-73
2023/02/15 03:38:33;;;;;;;28.62;15.70;;;-1.60;99.90;;;;;;486544;244;27472;-74
2023/02/15 03:42:54;;;;;;;26.73;15.98;;;-1.70;99.90;;;;;;486531;242;27504;-74
2023/02/15 03:44:55;;;;;;;28.23;16.45;;;-1.70;99.90;;;;;;486530;244;27462;-74
2023/02/15 03:46:56;;;;;;;26.30;14.98;;;-1.70;99.90;;;;;;486494;244;28670;-74
2023/02/15 03:48:58;;;;;;;24.12;14.65;;;-1.70;99.90;;;;;;486527;244;27865;-74
2023/02/15 03:53:20;;;;;;;26.20;15.40;;;-1.80;99.90;;;;;;486477;242;27405;-74
2023/02/15 03:55:20;;;;;;;20.80;13.43;;;-1.80;99.90;;;;;;486522;244;27403;-74
2023/02/15 04:02:00;;;;;;;25.65;14.38;;;-1.90;99.90;;;;;;486515;240;28735;-74
2023/02/15 04:04:02;;;;;;;23.50;14.23;;;-1.90;99.90;;;;;;486489;244;27942;-75
2023/02/15 04:06:03;;;;;;;23.75;13.52;;;-2.00;99.90;;;;;;486477;244;27410;-75
2023/02/15 04:08:04;;;;;;;25.15;14.77;;;-2.00;99.90;;;;;;486560;244;27425;-75
2023/02/15 04:12:25;;;;;;;27.75;16.60;;;-2.00;99.90;;;;;;486465;244;27446;-75
2023/02/15 04:16:30;;;;;;;22.90;14.75;;;-2.00;99.90;;;;;;481030;243;27623;-75
2023/02/15 04:25:30;;;;;;;25.75;14.82;;;-1.90;99.90;;;;;;486499;242;28096;-75
2023/02/15 04:27:32;;;;;;;26.65;16.52;;;-1.90;99.90;;;;;;486553;244;27934;-75
2023/02/15 04:29:33;;;;;;;32.03;17.25;;;-1.80;99.90;;;;;;486547;244;27391;-75
2023/02/15 04:31:34;;;;;;;28.33;15.82;;;-1.90;99.90;;;;;;486535;242;27466;-75
2023/02/15 04:33:35;;;;;;;27.10;15.77;;;-1.80;99.90;;;;;;486542;244;27481;-76
2023/02/15 04:35:37;;;;;;;27.25;15.15;;;-1.90;99.90;;;;;;486533;244;27530;-75
2023/02/15 04:37:38;;;;;;;26.37;15.00;;;-1.90;99.90;;;;;;486561;244;27450;-75
2023/02/15 04:39:39;;;;;;;32.45;18.08;;;-1.90;99.90;;;;;;486540;244;27934;-75
2023/02/15 04:41:40;;;;;;;26.48;16.10;;;-1.90;99.90;;;;;;486549;244;27446;-75
2023/02/15 04:43:42;;;;;;;30.70;16.40;;;-1.80;99.90;;;;;;486537;244;27399;-75
2023/02/15 04:45:43;;;;;;;32.90;18.98;;;-1.80;99.90;;;;;;486543;244;27433;-75
2023/02/15 04:47:44;;;;;;;34.05;17.67;;;-1.80;99.90;;;;;;486550;244;27488;-76
2023/02/15 04:49:45;;;;;;;31.75;18.87;;;-1.70;99.90;;;;;;486533;244;27474;-75
2023/02/15 04:51:49;;;;;;;38.83;20.05;;;-1.80;99.90;;;;;;486529;244;28041;-75
2023/02/15 04:53:52;;;;;;;29.25;16.90;;;-1.70;99.90;;;;;;486516;244;27442;-75
2023/02/15 04:55:52;;;;;;;30.85;16.77;;;-1.80;99.90;;;;;;486496;244;27443;-75
2023/02/15 04:57:53;;;;;;;29.85;17.62;;;-1.90;99.90;;;;;;486531;244;27437;-75
2023/02/15 04:59:54;;;;;;;31.15;16.80;;;-1.90;99.90;;;;;;486564;244;27525;-75
2023/02/15 05:01:56;;;;;;;29.35;17.67;;;-2.00;99.90;;;;;;486549;244;27411;-75
2023/02/15 05:03:57;;;;;;;30.77;17.10;;;-2.00;99.90;;;;;;486528;244;28017;-75
2023/02/15 05:05:58;;;;;;;29.12;17.02;;;-2.10;99.90;;;;;;486510;244;28972;-75
2023/02/15 05:08:00;;;;;;;26.90;15.98;;;-2.10;99.90;;;;;;486546;244;27422;-75
2023/02/15 05:10:01;;;;;;;27.80;15.35;;;-2.10;99.90;;;;;;486567;244;27514;-75
2023/02/15 05:12:02;;;;;;;25.73;15.75;;;-2.10;99.90;;;;;;486523;244;27485;-75
2023/02/15 05:14:03;;;;;;;25.55;15.30;;;-2.20;99.90;;;;;;486527;242;27469;-76
2023/02/15 05:16:04;;;;;;;32.03;17.60;;;-2.20;99.90;;;;;;486528;244;27859;-75
2023/02/15 05:18:07;;;;;;;32.05;16.85;;;-2.30;99.90;;;;;;486557;244;29075;-75
2023/02/15 05:20:07;;;;;;;33.47;18.80;;;-2.30;99.90;;;;;;486540;244;27556;-75
2023/02/15 05:22:08;;;;;;;30.23;17.20;;;-2.30;99.90;;;;;;486565;244;27399;-75
2023/02/15 05:28:33;;;;;;;32.72;16.05;;;-2.30;99.90;;;;;;486559;243;27419;-74
2023/02/15 05:30:34;;;;;;;33.25;17.55;;;-2.30;99.90;;;;;;486588;244;27560;-75
2023/02/15 05:32:35;;;;;;;31.05;17.33;;;-2.30;99.90;;;;;;486598;244;27521;-75
2023/02/15 05:34:36;;;;;;;29.95;17.77;;;-2.30;99.90;;;;;;486536;244;27854;-75
2023/02/15 05:36:38;;;;;;;29.67;17.00;;;-2.30;99.90;;;;;;486574;244;27553;-75
2023/02/15 05:38:39;;;;;;;32.00;17.50;;;-2.30;99.90;;;;;;486522;244;27475;-75
2023/02/15 05:40:40;;;;;;;27.90;16.17;;;-2.30;99.90;;;;;;486582;244;27530;-75
2023/02/15 05:42:42;;;;;;;29.67;16.80;;;-2.30;99.90;;;;;;486562;244;27529;-75
2023/02/15 05:44:43;;;;;;;28.60;17.10;;;-2.30;99.90;;;;;;486518;244;27411;-75
2023/02/15 05:46:44;;;;;;;27.95;16.67;;;-2.30;99.90;;;;;;486497;244;27946;-75
2023/02/15 05:48:45;;;;;;;26.30;15.98;;;-2.30;99.90;;;;;;486490;244;28605;-76
2023/02/15 05:50:47;;;;;;;26.55;15.77;;;-2.30;99.90;;;;;;486430;244;27473;-75
2023/02/15 05:52:48;;;;;;;28.87;17.12;;;-2.40;99.90;;;;;;486388;244;27484;-75
2023/02/15 05:54:49;;;;;;;28.17;15.85;;;-2.40;99.90;;;;;;486333;244;27521;-75
2023/02/15 05:56:50;;;;;;;23.00;14.15;;;-2.40;99.90;;;;;;486290;243;27557;-75
2023/02/15 05:58:52;;;;;;;24.77;15.63;;;-2.40;99.90;;;;;;486442;244;28109;-75
2023/02/15 06:00:53;;;;;;;27.52;15.25;;;-2.40;99.90;;;;;;486546;244;27851;-75
2023/02/15 06:02:54;;;;;;;29.08;16.00;;;-2.50;99.90;;;;;;486545;244;27430;-75
2023/02/15 06:04:55;;;;;;;27.62;16.83;;;-2.50;99.90;;;;;;486532;244;27478;-75
2023/02/15 06:06:57;;;;;;;27.37;15.85;;;-2.60;99.90;;;;;;486504;244;27435;-75
2023/02/15 06:08:58;;;;;;;30.70;17.20;;;-2.70;99.90;;;;;;486528;244;27939;-75
2023/02/15 06:10:59;;;;;;;30.42;16.35;;;-2.70;99.90;;;;;;486537;244;27852;-75
2023/02/15 06:13:00;;;;;;;30.12;15.40;;;-2.60;99.90;;;;;;486543;244;28023;-75
2023/02/15 06:15:02;;;;;;;26.95;16.30;;;-2.70;99.90;;;;;;486489;244;27391;-75
2023/02/15 06:17:03;;;;;;;23.62;15.18;;;-2.60;99.90;;;;;;486536;244;27509;-75
2023/02/15 06:19:04;;;;;;;25.88;16.17;;;-2.60;99.90;;;;;;486554;244;27486;-76
2023/02/15 06:21:05;;;;;;;24.60;15.45;;;-2.60;99.90;;;;;;486533;244;27407;-75
2023/02/15 06:23:07;;;;;;;25.88;14.68;;;-2.60;99.90;;;;;;486540;244;27553;-76
2023/02/15 06:25:09;;;;;;;32.78;16.17;;;-2.60;99.90;;;;;;486487;244;28490;-76
2023/02/15 06:27:09;;;;;;;26.70;15.20;;;-2.60;99.90;;;;;;486547;244;27387;-75
2023/02/15 06:29:11;;;;;;;27.40;16.45;;;-2.50;99.90;;;;;;486571;244;27578;-75
2023/02/15 06:31:12;;;;;;;29.52;17.12;;;-2.50;99.90;;;;;;486554;244;27409;-75
2023/02/15 06:33:13;;;;;;;26.55;15.88;;;-2.60;99.90;;;;;;486531;244;27462;-75
2023/02/15 06:35:14;;;;;;;27.73;15.90;;;-2.60;99.90;;;;;;486554;244;27442;-75
2023/02/15 06:37:16;;;;;;;28.45;16.42;;;-2.60;99.90;;;;;;486562;244;27878;-75
2023/02/15 06:39:17;;;;;;;25.83;15.43;;;-2.70;99.90;;;;;;486513;244;27924;-76
2023/02/15 06:41:18;;;;;;;24.02;13.55;;;-2.70;99.90;;;;;;486557;244;27433;-75
2023/02/15 06:43:19;;;;;;;25.48;14.77;;;-2.70;99.90;;;;;;486559;244;27510;-75
2023/02/15 06:45:21;;;;;;;22.45;14.87;;;-2.70;99.90;;;;;;486590;244;27394;-75
2023/02/15 06:47:22;;;;;;;24.40;14.25;;;-2.80;99.90;;;;;;486560;244;27521;-75
2023/02/15 06:49:23;;;;;;;22.10;13.85;;;-2.70;99.90;;;;;;486531;244;27990;-75
2023/02/15 06:51:24;;;;;;;21.65;13.55;;;-2.80;99.90;;;;;;478853;235;27943;-75
2023/02/15 06:53:26;;;;;;;25.73;15.50;;;-2.70;99.90;;;;;;488346;243;27337;-75
2023/02/15 06:55:27;;;;;;;22.98;14.43;;;-2.70;99.90;;;;;;488380;243;27352;-75
2023/02/15 06:57:28;;;;;;;25.08;15.13;;;-2.70;99.90;;;;;;488362;243;27321;-75
2023/02/15 06:59:29;;;;;;;21.20;13.07;;;-2.60;99.90;;;;;;470571;252;27481;-75
2023/02/15 07:01:31;;;;;;;26.62;15.95;;;-2.60;99.90;;;;;;478533;248;27420;-74
2023/02/15 07:03:32;;;;;;;24.30;15.23;;;-2.60;99.90;;;;;;488337;243;27820;-75
2023/02/15 07:05:33;;;;;;;23.02;15.20;;;-2.60;99.90;;;;;;488393;243;27364;-75
2023/02/15 07:07:35;;;;;;;24.23;15.10;;;-2.50;99.90;;;;;;470136;252;27560;-76
2023/02/15 07:09:36;;;;;;;19.62;13.60;;;-2.50;99.90;;;;;;478521;248;27440;-75
2023/02/15 07:13:57;;;;;;;22.85;14.52;;;-2.40;99.90;;;;;;488377;242;28001;-75
2023/02/15 07:15:58;;;;;;;26.60;15.13;;;-2.30;99.90;;;;;;470586;252;27520;-75
2023/02/15 07:17:59;;;;;;;36.25;21.35;;;-2.20;99.90;;;;;;478538;248;27505;-75
2023/02/15 07:20:01;;;;;;;33.25;19.10;;;-2.20;99.90;;;;;;488340;243;27459;-75
2023/02/15 07:22:03;;;;;;;34.25;19.33;;;-2.30;99.90;;;;;;488347;243;27690;-77
2023/02/15 07:24:03;;;;;;;30.40;17.52;;;-2.30;99.90;;;;;;478601;247;27411;-75
2023/02/15 07:26:04;;;;;;;38.22;19.70;;;-2.30;99.90;;;;;;478652;248;27550;-76
2023/02/15 07:28:05;;;;;;;31.98;18.85;;;-2.40;99.90;;;;;;478640;248;27474;-75
2023/02/15 07:30:07;;;;;;;32.90;19.42;;;-2.30;99.90;;;;;;478696;248;27471;-76
2023/02/15 07:32:08;;;;;;;45.65;23.38;;;-2.10;99.90;;;;;;478687;248;28048;-76
2023/02/15 07:34:09;;;;;;;59.70;24.35;;;-1.90;99.90;;;;;;478636;248;27494;-76
2023/02/15 07:36:11;;;;;;;63.80;24.20;;;-1.90;99.90;;;;;;478578;248;27475;-75
2023/02/15 07:38:12;;;;;;;43.90;23.20;;;-2.00;99.90;;;;;;478486;248;27490;-75
2023/02/15 07:40:13;;;;;;;59.95;24.80;;;-1.80;99.90;;;;;;478525;248;27506;-76
2023/02/15 07:42:14;;;;;;;61.90;24.15;;;-1.90;99.90;;;;;;478617;248;27458;-76
2023/02/15 07:44:16;;;;;;;45.50;21.50;;;-1.90;99.90;;;;;;478617;248;27973;-76
2023/02/15 07:46:17;;;;;;;37.60;19.73;;;-1.80;99.90;;;;;;478629;248;28010;-76
2023/02/15 07:48:18;;;;;;;37.72;20.65;;;-1.60;99.90;;;;;;478674;248;27521;-76
2023/02/15 07:50:19;;;;;;;37.30;20.02;;;-1.50;99.90;;;;;;478672;248;27509;-75
2023/02/15 07:52:21;;;;;;;44.78;18.95;;;-1.30;99.90;;;;;;478685;248;27581;-76
2023/02/15 07:54:22;;;;;;;41.08;19.55;;;-1.20;99.90;;;;;;478627;248;27490;-76
2023/02/15 07:56:23;;;;;;;41.90;18.70;;;-1.20;99.90;;;;;;478616;248;27919;-75
2023/02/15 07:58:50;;;;;;;38.88;18.17;;;-1.20;99.90;;;;;;478698;248;28112;-76
2023/02/15 08:00:26;;;;;;;43.13;19.33;;;-1.10;99.90;;;;;;477005;248;27501;-75
2023/02/15 08:02:28;;;;;;;50.92;18.58;;;-1.00;99.90;;;;;;478663;248;27548;-75
2023/02/15 08:04:28;;;;;;;69.03;20.85;;;-1.00;99.90;;;;;;478593;248;27443;-76
2023/02/15 08:06:29;;;;;;;87.70;23.62;;;-1.20;99.90;;;;;;478625;248;27457;-76
2023/02/15 08:08:31;;;;;;;36.55;18.30;;;-1.30;99.90;;;;;;478699;248;27984;-76
2023/02/15 08:12:52;;;;;;;35.78;16.85;;;-1.10;99.90;;;;;;478677;248;27486;-76
2023/02/15 08:14:53;;;;;;;37.30;17.48;;;-0.90;99.90;;;;;;478693;248;27432;-75
2023/02/15 08:16:58;;;;;;;36.83;18.30;;;-0.80;99.90;;;;;;478698;248;27960;-76
2023/02/15 08:18:59;;;;;;;39.10;18.52;;;-0.70;99.90;;;;;;478580;248;27410;-76
2023/02/15 08:21:00;;;;;;;32.67;16.77;;;-0.70;99.90;;;;;;478617;248;27523;-75
2023/02/15 08:23:01;;;;;;;55.25;18.05;;;-0.70;99.90;;;;;;478637;248;27498;-76
2023/02/15 08:25:02;;;;;;;33.25;17.45;;;-0.80;99.90;;;;;;478660;248;27847;-76
2023/02/15 08:27:04;;;;;;;32.92;18.08;;;-0.80;99.90;;;;;;478673;248;28075;-75
2023/02/15 08:29:06;;;;;;;34.03;17.20;;;-0.60;99.90;;;;;;478648;248;27407;-75
2023/02/15 08:31:06;;;;;;;30.58;18.52;;;-0.50;99.90;;;;;;478597;248;27454;-76
2023/02/15 08:33:09;;;;;;;60.20;19.75;;;-0.40;99.90;;;;;;478642;248;27434;-76
2023/02/15 08:35:09;;;;;;;33.72;18.10;;;-0.40;99.90;;;;;;478555;248;27413;-76
2023/02/15 08:37:10;;;;;;;28.90;15.60;;;-0.50;99.90;;;;;;478632;248;27520;-76
2023/02/15 08:39:11;;;;;;;32.92;18.17;;;-0.50;99.90;;;;;;478635;248;27890;-74
2023/02/15 08:41:12;;;;;;;24.15;14.85;;;-0.60;99.90;;;;;;478634;248;27460;-76
2023/02/15 08:43:14;;;;;;;38.88;20.52;;;-0.60;99.90;;;;;;478665;248;27563;-75
2023/02/15 08:45:15;;;;;;;31.60;18.35;;;-0.70;99.90;;;;;;478670;248;27411;-75
2023/02/15 08:47:16;;;;;;;32.00;17.33;;;-0.60;99.90;;;;;;478651;248;27462;-76
2023/02/15 08:49:17;;;;;;;31.33;17.73;;;-0.50;99.90;;;;;;478609;248;27453;-76
2023/02/15 08:51:19;;;;;;;31.92;18.17;;;-0.40;99.90;;;;;;478621;248;28027;-76
2023/02/15 08:53:21;;;;;;;29.77;17.12;;;-0.40;99.90;;;;;;478697;248;28101;-75
2023/02/15 08:55:21;;;;;;;29.95;17.48;;;-0.40;99.90;;;;;;478627;248;27512;-76
2023/02/15 08:57:22;;;;;;;31.55;17.37;;;-0.40;99.90;;;;;;478643;248;27487;-75
2023/02/15 08:59:26;;;;;;;27.08;15.65;;;-0.40;99.90;;;;;;478640;248;27514;-75
2023/02/15 09:01:25;;;;;;;27.85;16.40;;;-0.30;99.90;;;;;;478484;248;27465;-75
2023/02/15 09:03:27;;;;;;;28.95;16.67;;;-0.30;99.90;;;;;;478682;248;27930;-76
2023/02/15 09:05:27;;;;;;;30.88;16.95;;;-0.30;99.90;;;;;;478611;248;28026;-75
2023/02/15 09:07:29;;;;;;;30.60;17.33;;;-0.30;99.90;;;;;;478466;248;27553;-76
2023/02/15 09:09:31;;;;;;;26.37;15.45;;;-0.30;99.90;;;;;;478637;248;27422;-76
2023/02/15 09:11:31;;;;;;;30.25;15.80;;;-0.30;99.90;;;;;;478588;248;27487;-76
2023/02/15 09:13:33;;;;;;;27.42;16.37;;;-0.20;99.90;;;;;;478456;248;27790;-76
2023/02/15 09:15:34;;;;;;;29.20;15.90;;;-0.10;99.90;;;;;;478649;248;27894;-76
2023/02/15 09:17:35;;;;;;;26.33;16.33;;;-0.10;99.90;;;;;;478656;248;28006;-77
2023/02/15 09:19:36;;;;;;;26.52;16.73;;;-0.10;99.90;;;;;;478621;248;27490;-76
2023/02/15 09:21:38;;;;;;;28.33;15.40;;;-0.10;99.90;;;;;;478654;248;27577;-75
2023/02/15 09:23:39;;;;;;;32.03;17.95;;;0.00;99.90;;;;;;478680;248;27467;-77
2023/02/15 09:25:42;;;;;;;27.55;15.68;;;0.10;99.90;;;;;;478678;248;27503;-76
2023/02/15 09:27:42;;;;;;;30.37;16.98;;;0.20;99.90;;;;;;478535;248;27470;-76
2023/02/15 09:29:43;;;;;;;25.40;15.15;;;0.20;99.90;;;;;;478625;248;27848;-76
2023/02/15 09:31:44;;;;;;;29.15;16.58;;;0.20;99.90;;;;;;478689;248;27974;-76
2023/02/15 09:33:45;;;;;;;27.30;16.23;;;0.30;99.90;;;;;;478616;248;27545;-75
2023/02/15 09:35:46;;;;;;;26.67;16.65;;;0.30;99.90;;;;;;478699;248;27455;-76
2023/02/15 09:37:48;;;;;;;28.02;16.65;;;0.30;99.90;;;;;;478692;248;27483;-75
2023/02/15 09:39:49;;;;;;;32.08;16.85;;;0.40;99.90;;;;;;478679;248;27494;-76
2023/02/15 09:41:50;;;;;;;30.17;17.23;;;0.40;99.90;;;;;;478682;248;27918;-76
2023/02/15 09:43:51;;;;;;;29.77;17.30;;;0.50;99.90;;;;;;478694;248;28021;-77
2023/02/15 09:45:53;;;;;;;27.15;16.60;;;0.50;99.90;;;;;;478651;248;27495;-76
2023/02/15 09:47:54;;;;;;;32.25;17.60;;;0.60;99.90;;;;;;478678;248;27469;-76
2023/02/15 09:49:55;;;;;;;37.55;19.50;;;0.60;99.90;;;;;;478632;248;27497;-74
2023/02/15 09:51:58;;;;;;;35.05;19.67;;;0.70;99.90;;;;;;478619;248;27489;-75
2023/02/15 09:53:58;;;;;;;29.52;17.12;;;0.80;99.90;;;;;;478574;248;27804;-75
2023/02/15 09:55:59;;;;;;;27.95;16.65;;;0.90;99.90;;;;;;478654;248;27427;-76
2023/02/15 09:58:02;;;;;;;24.15;15.20;;;0.90;99.90;;;;;;478669;248;27928;-77
2023/02/15 10:00:01;;;;;;;26.20;15.60;;;1.00;99.90;;;;;;478521;248;27873;-75
2023/02/15 10:02:03;;;;;;;27.13;16.05;;;1.10;99.90;;;;;;478611;248;27565;-76
2023/02/15 10:04:04;;;;;;;27.33;16.25;;;1.20;99.90;;;;;;478643;248;27471;-77
2023/02/15 10:06:05;;;;;;;29.63;16.65;;;1.30;99.90;;;;;;478594;248;27462;-76
2023/02/15 10:08:06;;;;;;;24.40;15.23;;;1.30;99.90;;;;;;478602;248;27474;-75
2023/02/15 10:10:08;;;;;;;22.52;14.15;;;1.40;99.90;;;;;;478593;248;27466;-75
2023/02/15 10:12:09;;;;;;;26.33;15.38;;;1.50;99.90;;;;;;478564;248;27579;-76
2023/02/15 10:14:10;;;;;;;21.98;13.60;;;1.60;99.90;;;;;;478709;248;27961;-77
2023/02/15 10:16:12;;;;;;;26.17;16.48;;;1.70;99.90;;;;;;478671;248;27881;-75
2023/02/15 10:18:13;;;;;;;27.55;16.65;;;1.70;99.90;;;;;;478626;248;27529;-75
2023/02/15 10:20:14;;;;;;;23.95;15.00;;;1.80;99.90;;;;;;478657;248;27415;-76
2023/02/15 10:22:15;;;;;;;23.73;15.05;;;1.90;99.90;;;;;;478620;248;27623;-75
2023/02/15 10:24:17;;;;;;;25.50;14.70;;;2.00;99.90;;;;;;478690;248;27517;-76
2023/02/15 10:26:18;;;;;;;21.90;13.90;;;2.00;99.90;;;;;;478671;248;27450;-76
2023/02/15 10:28:19;;;;;;;22.33;14.82;;;2.10;99.90;;;;;;478652;248;27905;-76
2023/02/15 10:30:20;;;;;;;18.30;12.52;;;2.20;99.90;;;;;;478640;248;29050;-76
2023/02/15 10:32:23;;;;;;;19.25;11.85;;;2.30;99.90;;;;;;478648;248;27527;-75
2023/02/15 10:34:23;;;;;;;18.62;12.32;;;2.30;99.90;;;;;;478618;248;27480;-75
2023/02/15 10:36:24;;;;;;;21.67;13.85;;;2.40;99.90;;;;;;478668;248;27414;-75
2023/02/15 10:38:25;;;;;;;24.80;15.70;;;2.50;99.90;;;;;;478636;248;27457;-75
2023/02/15 10:40:27;;;;;;;22.08;14.27;;;2.60;99.90;;;;;;478634;248;27431;-75
2023/02/15 10:42:28;;;;;;;21.52;14.60;;;2.70;99.90;;;;;;478660;248;27463;-75
2023/02/15 10:44:29;;;;;;;24.65;15.45;;;2.80;99.90;;;;;;478668;248;27926;-76
2023/02/15 10:46:30;;;;;;;24.00;16.20;;;2.90;99.90;;;;;;478644;248;27878;-76
2023/02/15 10:48:32;;;;;;;23.75;14.95;;;3.00;99.90;;;;;;478603;248;27454;-75
2023/02/15 10:50:33;;;;;;;21.83;14.10;;;3.00;99.90;;;;;;478672;248;27505;-75
2023/02/15 10:52:34;;;;;;;21.73;14.90;;;3.10;99.90;;;;;;478676;248;27472;-75
2023/02/15 10:54:36;;;;;;;22.25;14.80;;;3.20;99.90;;;;;;478684;248;27545;-75